sensor_id;sensor_type;location;lat;lon;timestamp;P1;durP1;ratioP1;P2;durP2;ratioP2
37451;SDS011;23314;51.114;6.900;2023-11-21T00:00:03;25.63;;;16.30;;
37451;SDS011;23314;51.114;6.900;2023-11-21T00:02:35;28.33;;;15.93;;
37451;SDS011;23314;51.114;6.900;2023-11-21T00:05:01;27.80;;;16.43;;
37451;SDS011;23314;51.114;6.900;2023-11-21T00:07:28;27.67;;;16.90;;
37451;SDS011;23314;51.114;6.900;2023-11-21T00:09:53;28.87;;;15.60;;
37451;SDS011;23314;51.114;6.900;2023-11-21T00:12:20;37.17;;;15.17;;
37451;SDS011;23314;51.114;6.900;2023-11-21T00:14:46;25.13;;;15.20;;
37451;SDS011;23314;51.114;6.900;2023-11-21T00:17:11;26.17;;;15.67;;
37451;SDS011;23314;51.114;6.900;2023-11-21T00:19:36;35.80;;;18.43;;
37451;SDS011;23314;51.114;6.900;2023-11-21T00:22:02;28.27;;;17.47;;
37451;SDS011;23314;51.114;6.900;2023-11-21T00:24:27;31.13;;;18.13;;
37451;SDS011;23314;51.114;6.900;2023-11-21T00:26:52;31.13;;;17.27;;
37451;SDS011;23314;51.114;6.900;2023-11-21T00:29:18;28.63;;;17.00;;
37451;SDS011;23314;51.114;6.900;2023-11-21T00:31:44;33.23;;;18.90;;
37451;SDS011;23314;51.114;6.900;2023-11-21T00:34:11;31.23;;;17.80;;
37451;SDS011;23314;51.114;6.900;2023-11-21T00:36:37;32.67;;;20.03;;
37451;SDS011;23314;51.114;6.900;2023-11-21T00:39:02;29.73;;;16.33;;
37451;SDS011;23314;51.114;6.900;2023-11-21T00:41:28;24.80;;;16.20;;
37451;SDS011;23314;51.114;6.900;2023-11-21T00:43:53;23.03;;;14.77;;
37451;SDS011;23314;51.114;6.900;2023-11-21T00:46:20;35.23;;;18.50;;
37451;SDS011;23314;51.114;6.900;2023-11-21T00:48:45;28.87;;;18.33;;
37451;SDS011;23314;51.114;6.900;2023-11-21T00:51:10;31.20;;;17.93;;
37451;SDS011;23314;51.114;6.900;2023-11-21T00:53:36;36.10;;;19.10;;
37451;SDS011;23314;51.114;6.900;2023-11-21T00:56:01;29.60;;;18.23;;
37451;SDS011;23314;51.114;6.900;2023-11-21T00:58:27;29.60;;;16.27;;
37451;SDS011;23314;51.114;6.900;2023-11-21T01:00:53;29.40;;;17.27;;
37451;SDS011;23314;51.114;6.900;2023-11-21T01:03:18;27.63;;;17.37;;
37451;SDS011;23314;51.114;6.900;2023-11-21T01:05:44;26.43;;;16.47;;
37451;SDS011;23314;51.114;6.900;2023-11-21T01:08:10;26.17;;;16.20;;
37451;SDS011;23314;51.114;6.900;2023-11-21T01:10:36;25.60;;;15.97;;
37451;SDS011;23314;51.114;6.900;2023-11-21T01:13:02;28.43;;;15.63;;
37451;SDS011;23314;51.114;6.900;2023-11-21T01:15:30;28.03;;;15.77;;
37451;SDS011;23314;51.114;6.900;2023-11-21T01:17:55;24.47;;;14.93;;
37451;SDS011;23314;51.114;6.900;2023-11-21T01:20:20;24.60;;;16.17;;
37451;SDS011;23314;51.114;6.900;2023-11-21T01:22:46;22.57;;;14.97;;
37451;SDS011;23314;51.114;6.900;2023-11-21T01:25:14;28.43;;;15.70;;
37451;SDS011;23314;51.114;6.900;2023-11-21T01:27:41;22.87;;;15.37;;
37451;SDS011;23314;51.114;6.900;2023-11-21T01:30:07;25.40;;;14.90;;
37451;SDS011;23314;51.114;6.900;2023-11-21T01:32:33;29.23;;;15.77;;
37451;SDS011;23314;51.114;6.900;2023-11-21T01:34:59;27.17;;;14.90;;
37451;SDS011;23314;51.114;6.900;2023-11-21T01:37:25;23.70;;;15.03;;
37451;SDS011;23314;51.114;6.900;2023-11-21T01:39:53;26.63;;;15.23;;
37451;SDS011;23314;51.114;6.900;2023-11-21T01:42:19;26.67;;;15.67;;
37451;SDS011;23314;51.114;6.900;2023-11-21T01:44:45;29.20;;;15.83;;
37451;SDS011;23314;51.114;6.900;2023-11-21T01:47:11;23.70;;;15.77;;
37451;SDS011;23314;51.114;6.900;2023-11-21T01:49:37;30.97;;;17.43;;
37451;SDS011;23314;51.114;6.900;2023-11-21T01:52:03;25.43;;;16.13;;
37451;SDS011;23314;51.114;6.900;2023-11-21T01:54:29;30.57;;;18.53;;
37451;SDS011;23314;51.114;6.900;2023-11-21T01:56:58;29.97;;;16.23;;
37451;SDS011;23314;51.114;6.900;2023-11-21T01:59:29;26.80;;;16.23;;
37451;SDS011;23314;51.114;6.900;2023-11-21T02:02:01;26.80;;;17.13;;
37451;SDS011;23314;51.114;6.900;2023-11-21T02:04:34;33.10;;;17.03;;
37451;SDS011;23314;51.114;6.900;2023-11-21T02:07:01;30.40;;;18.23;;
37451;SDS011;23314;51.114;6.900;2023-11-21T02:09:30;29.90;;;16.50;;
37451;SDS011;23314;51.114;6.900;2023-11-21T02:11:56;26.43;;;16.73;;
37451;SDS011;23314;51.114;6.900;2023-11-21T02:14:24;30.30;;;17.47;;
37451;SDS011;23314;51.114;6.900;2023-11-21T02:16:53;24.70;;;16.00;;
37451;SDS011;23314;51.114;6.900;2023-11-21T02:19:19;26.93;;;16.20;;
37451;SDS011;23314;51.114;6.900;2023-11-21T02:21:49;28.37;;;15.67;;
37451;SDS011;23314;51.114;6.900;2023-11-21T02:24:15;23.40;;;14.57;;
37451;SDS011;23314;51.114;6.900;2023-11-21T02:26:42;26.77;;;14.67;;
37451;SDS011;23314;51.114;6.900;2023-11-21T02:29:07;24.13;;;15.37;;
37451;SDS011;23314;51.114;6.900;2023-11-21T02:31:35;23.73;;;14.60;;
37451;SDS011;23314;51.114;6.900;2023-11-21T02:34:02;20.60;;;14.90;;
37451;SDS011;23314;51.114;6.900;2023-11-21T02:36:28;20.00;;;14.57;;
37451;SDS011;23314;51.114;6.900;2023-11-21T02:38:53;21.37;;;14.50;;
37451;SDS011;23314;51.114;6.900;2023-11-21T02:41:19;22.33;;;13.80;;
37451;SDS011;23314;51.114;6.900;2023-11-21T02:43:44;27.07;;;14.03;;
37451;SDS011;23314;51.114;6.900;2023-11-21T02:46:09;21.93;;;14.80;;
37451;SDS011;23314;51.114;6.900;2023-11-21T02:48:34;25.17;;;14.87;;
37451;SDS011;23314;51.114;6.900;2023-11-21T02:51:01;25.47;;;14.37;;
37451;SDS011;23314;51.114;6.900;2023-11-21T02:53:26;24.17;;;13.30;;
37451;SDS011;23314;51.114;6.900;2023-11-21T02:55:51;23.17;;;14.77;;
37451;SDS011;23314;51.114;6.900;2023-11-21T02:58:17;23.30;;;15.17;;
37451;SDS011;23314;51.114;6.900;2023-11-21T03:00:42;23.03;;;14.40;;
37451;SDS011;23314;51.114;6.900;2023-11-21T03:03:07;19.07;;;13.03;;
37451;SDS011;23314;51.114;6.900;2023-11-21T03:05:33;28.50;;;15.43;;
37451;SDS011;23314;51.114;6.900;2023-11-21T03:08:00;22.77;;;14.20;;
37451;SDS011;23314;51.114;6.900;2023-11-21T03:10:26;24.13;;;13.83;;
37451;SDS011;23314;51.114;6.900;2023-11-21T03:12:52;25.47;;;15.10;;
37451;SDS011;23314;51.114;6.900;2023-11-21T03:15:17;24.50;;;14.60;;
37451;SDS011;23314;51.114;6.900;2023-11-21T03:17:42;23.27;;;14.43;;
37451;SDS011;23314;51.114;6.900;2023-11-21T03:20:08;23.63;;;14.43;;
37451;SDS011;23314;51.114;6.900;2023-11-21T03:22:36;21.70;;;15.30;;
37451;SDS011;23314;51.114;6.900;2023-11-21T03:25:01;23.87;;;15.27;;
37451;SDS011;23314;51.114;6.900;2023-11-21T03:27:28;22.33;;;14.03;;
37451;SDS011;23314;51.114;6.900;2023-11-21T03:29:53;26.13;;;14.67;;
37451;SDS011;23314;51.114;6.900;2023-11-21T03:32:19;19.97;;;13.67;;
37451;SDS011;23314;51.114;6.900;2023-11-21T03:34:57;23.57;;;14.07;;
37451;SDS011;23314;51.114;6.900;2023-11-21T03:37:23;24.70;;;15.30;;
37451;SDS011;23314;51.114;6.900;2023-11-21T03:39:49;26.60;;;14.50;;
37451;SDS011;23314;51.114;6.900;2023-11-21T03:42:15;18.53;;;13.67;;
37451;SDS011;23314;51.114;6.900;2023-11-21T03:44:40;22.80;;;14.13;;
37451;SDS011;23314;51.114;6.900;2023-11-21T03:47:06;24.40;;;13.73;;
37451;SDS011;23314;51.114;6.900;2023-11-21T03:49:31;25.93;;;14.37;;
37451;SDS011;23314;51.114;6.900;2023-11-21T03:51:56;31.47;;;15.07;;
37451;SDS011;23314;51.114;6.900;2023-11-21T03:54:22;21.90;;;14.03;;
37451;SDS011;23314;51.114;6.900;2023-11-21T03:56:47;22.93;;;14.33;;
37451;SDS011;23314;51.114;6.900;2023-11-21T03:59:12;21.20;;;15.07;;
37451;SDS011;23314;51.114;6.900;2023-11-21T04:01:38;21.83;;;14.47;;
37451;SDS011;23314;51.114;6.900;2023-11-21T04:04:03;27.87;;;15.20;;
37451;SDS011;23314;51.114;6.900;2023-11-21T04:06:29;30.27;;;17.40;;
37451;SDS011;23314;51.114;6.900;2023-11-21T04:08:54;28.63;;;17.13;;
37451;SDS011;23314;51.114;6.900;2023-11-21T04:11:20;29.63;;;16.93;;
37451;SDS011;23314;51.114;6.900;2023-11-21T04:13:45;24.40;;;16.73;;
37451;SDS011;23314;51.114;6.900;2023-11-21T04:16:12;23.73;;;16.43;;
37451;SDS011;23314;51.114;6.900;2023-11-21T04:18:38;28.03;;;18.43;;
37451;SDS011;23314;51.114;6.900;2023-11-21T04:21:06;24.53;;;18.20;;
37451;SDS011;23314;51.114;6.900;2023-11-21T04:23:33;26.90;;;17.93;;
37451;SDS011;23314;51.114;6.900;2023-11-21T04:25:59;29.80;;;19.27;;
37451;SDS011;23314;51.114;6.900;2023-11-21T04:28:25;30.33;;;19.23;;
37451;SDS011;23314;51.114;6.900;2023-11-21T04:30:50;31.13;;;19.33;;
37451;SDS011;23314;51.114;6.900;2023-11-21T04:33:15;31.10;;;20.17;;
37451;SDS011;23314;51.114;6.900;2023-11-21T04:35:41;32.47;;;20.63;;
37451;SDS011;23314;51.114;6.900;2023-11-21T04:38:07;31.20;;;19.87;;
37451;SDS011;23314;51.114;6.900;2023-11-21T04:40:32;34.33;;;20.97;;
37451;SDS011;23314;51.114;6.900;2023-11-21T04:42:57;36.97;;;21.10;;
37451;SDS011;23314;51.114;6.900;2023-11-21T04:45:23;35.90;;;21.83;;
37451;SDS011;23314;51.114;6.900;2023-11-21T04:47:48;34.90;;;21.33;;
37451;SDS011;23314;51.114;6.900;2023-11-21T04:50:14;33.87;;;22.37;;
37451;SDS011;23314;51.114;6.900;2023-11-21T04:52:39;32.13;;;22.63;;
37451;SDS011;23314;51.114;6.900;2023-11-21T04:55:05;36.67;;;21.67;;
37451;SDS011;23314;51.114;6.900;2023-11-21T04:57:31;38.60;;;22.83;;
37451;SDS011;23314;51.114;6.900;2023-11-21T04:59:56;34.77;;;22.20;;
37451;SDS011;23314;51.114;6.900;2023-11-21T05:02:22;38.60;;;23.07;;
37451;SDS011;23314;51.114;6.900;2023-11-21T05:04:47;37.77;;;23.53;;
37451;SDS011;23314;51.114;6.900;2023-11-21T05:07:13;33.17;;;23.30;;
37451;SDS011;23314;51.114;6.900;2023-11-21T05:09:42;37.60;;;22.90;;
37451;SDS011;23314;51.114;6.900;2023-11-21T05:12:09;33.10;;;22.20;;
37451;SDS011;23314;51.114;6.900;2023-11-21T05:14:35;36.03;;;23.17;;
37451;SDS011;23314;51.114;6.900;2023-11-21T05:17:01;39.30;;;23.90;;
37451;SDS011;23314;51.114;6.900;2023-11-21T05:19:26;40.17;;;23.87;;
37451;SDS011;23314;51.114;6.900;2023-11-21T05:21:52;44.43;;;25.13;;
37451;SDS011;23314;51.114;6.900;2023-11-21T05:24:17;35.37;;;24.50;;
37451;SDS011;23314;51.114;6.900;2023-11-21T05:26:42;46.07;;;27.07;;
37451;SDS011;23314;51.114;6.900;2023-11-21T05:29:08;46.13;;;26.70;;
37451;SDS011;23314;51.114;6.900;2023-11-21T05:31:35;44.70;;;26.37;;
37451;SDS011;23314;51.114;6.900;2023-11-21T05:34:01;38.37;;;24.93;;
37451;SDS011;23314;51.114;6.900;2023-11-21T05:36:27;39.40;;;26.20;;
37451;SDS011;23314;51.114;6.900;2023-11-21T05:38:52;45.87;;;27.90;;
37451;SDS011;23314;51.114;6.900;2023-11-21T05:41:17;40.83;;;27.23;;
37451;SDS011;23314;51.114;6.900;2023-11-21T05:43:43;37.83;;;26.40;;
37451;SDS011;23314;51.114;6.900;2023-11-21T05:46:08;40.27;;;26.00;;
37451;SDS011;23314;51.114;6.900;2023-11-21T05:48:34;43.13;;;27.10;;
37451;SDS011;23314;51.114;6.900;2023-11-21T05:51:02;50.93;;;28.37;;
37451;SDS011;23314;51.114;6.900;2023-11-21T05:53:29;64.15;;;42.00;;
37451;SDS011;23314;51.114;6.900;2023-11-21T05:55:55;72.60;;;39.30;;
37451;SDS011;23314;51.114;6.900;2023-11-21T05:58:21;55.83;;;35.07;;
37451;SDS011;23314;51.114;6.900;2023-11-21T06:00:46;59.07;;;37.10;;
37451;SDS011;23314;51.114;6.900;2023-11-21T06:03:12;58.92;;;34.45;;
37451;SDS011;23314;51.114;6.900;2023-11-21T06:05:37;61.58;;;39.75;;
37451;SDS011;23314;51.114;6.900;2023-11-21T06:08:02;50.27;;;33.03;;
37451;SDS011;23314;51.114;6.900;2023-11-21T06:10:28;57.17;;;34.93;;
37451;SDS011;23314;51.114;6.900;2023-11-21T06:12:53;56.20;;;37.33;;
37451;SDS011;23314;51.114;6.900;2023-11-21T06:15:19;52.73;;;31.57;;
37451;SDS011;23314;51.114;6.900;2023-11-21T06:17:46;52.30;;;30.43;;
37451;SDS011;23314;51.114;6.900;2023-11-21T06:20:14;63.22;;;37.83;;
37451;SDS011;23314;51.114;6.900;2023-11-21T06:22:41;59.00;;;32.90;;
37451;SDS011;23314;51.114;6.900;2023-11-21T06:25:08;65.93;;;33.80;;
37451;SDS011;23314;51.114;6.900;2023-11-21T06:27:37;57.50;;;31.30;;
37451;SDS011;23314;51.114;6.900;2023-11-21T06:30:04;66.50;;;37.53;;
37451;SDS011;23314;51.114;6.900;2023-11-21T06:32:31;64.73;;;33.30;;
37451;SDS011;23314;51.114;6.900;2023-11-21T06:34:57;61.43;;;33.43;;
37451;SDS011;23314;51.114;6.900;2023-11-21T06:37:28;65.73;;;32.43;;
37451;SDS011;23314;51.114;6.900;2023-11-21T06:39:54;67.90;;;32.87;;
37451;SDS011;23314;51.114;6.900;2023-11-21T06:42:19;67.93;;;31.80;;
37451;SDS011;23314;51.114;6.900;2023-11-21T06:44:45;68.90;;;32.67;;
37451;SDS011;23314;51.114;6.900;2023-11-21T06:47:13;73.83;;;33.37;;
37451;SDS011;23314;51.114;6.900;2023-11-21T06:49:39;78.50;;;33.10;;
37451;SDS011;23314;51.114;6.900;2023-11-21T06:52:04;74.93;;;34.33;;
37451;SDS011;23314;51.114;6.900;2023-11-21T06:54:33;73.70;;;34.13;;
37451;SDS011;23314;51.114;6.900;2023-11-21T06:56:59;73.07;;;33.53;;
37451;SDS011;23314;51.114;6.900;2023-11-21T06:59:24;66.27;;;32.13;;
37451;SDS011;23314;51.114;6.900;2023-11-21T07:01:50;71.57;;;32.80;;
37451;SDS011;23314;51.114;6.900;2023-11-21T07:04:15;61.50;;;30.70;;
37451;SDS011;23314;51.114;6.900;2023-11-21T07:06:40;64.07;;;32.07;;
37451;SDS011;23314;51.114;6.900;2023-11-21T07:09:06;67.03;;;31.57;;
37451;SDS011;23314;51.114;6.900;2023-11-21T07:11:33;49.67;;;29.73;;
37451;SDS011;23314;51.114;6.900;2023-11-21T07:13:59;61.67;;;32.57;;
37451;SDS011;23314;51.114;6.900;2023-11-21T07:16:27;63.50;;;31.27;;
37451;SDS011;23314;51.114;6.900;2023-11-21T07:18:53;61.10;;;32.33;;
37451;SDS011;23314;51.114;6.900;2023-11-21T07:21:20;61.57;;;31.00;;
37451;SDS011;23314;51.114;6.900;2023-11-21T07:23:45;64.90;;;31.90;;
37451;SDS011;23314;51.114;6.900;2023-11-21T07:26:11;55.63;;;29.93;;
37451;SDS011;23314;51.114;6.900;2023-11-21T07:28:36;58.80;;;31.20;;
37451;SDS011;23314;51.114;6.900;2023-11-21T07:31:01;52.30;;;29.60;;
37451;SDS011;23314;51.114;6.900;2023-11-21T07:33:28;47.03;;;27.03;;
37451;SDS011;23314;51.114;6.900;2023-11-21T07:35:54;51.70;;;29.20;;
37451;SDS011;23314;51.114;6.900;2023-11-21T07:38:19;48.17;;;27.73;;
37451;SDS011;23314;51.114;6.900;2023-11-21T07:40:44;63.90;;;29.30;;
37451;SDS011;23314;51.114;6.900;2023-11-21T07:43:09;72.90;;;32.13;;
37451;SDS011;23314;51.114;6.900;2023-11-21T07:45:35;55.43;;;29.53;;
37451;SDS011;23314;51.114;6.900;2023-11-21T07:48:01;47.03;;;28.13;;
37451;SDS011;23314;51.114;6.900;2023-11-21T07:50:28;54.67;;;28.80;;
37451;SDS011;23314;51.114;6.900;2023-11-21T07:52:54;56.30;;;27.73;;
37451;SDS011;23314;51.114;6.900;2023-11-21T07:55:19;49.50;;;27.20;;
37451;SDS011;23314;51.114;6.900;2023-11-21T07:57:45;48.07;;;26.30;;
37451;SDS011;23314;51.114;6.900;2023-11-21T08:00:12;47.90;;;25.83;;
37451;SDS011;23314;51.114;6.900;2023-11-21T08:02:40;68.83;;;26.63;;
37451;SDS011;23314;51.114;6.900;2023-11-21T08:05:07;59.63;;;26.87;;
37451;SDS011;23314;51.114;6.900;2023-11-21T08:07:33;50.97;;;27.30;;
37451;SDS011;23314;51.114;6.900;2023-11-21T08:09:58;53.80;;;26.67;;
37451;SDS011;23314;51.114;6.900;2023-11-21T08:12:24;51.30;;;26.37;;
37451;SDS011;23314;51.114;6.900;2023-11-21T08:14:49;48.90;;;26.53;;
37451;SDS011;23314;51.114;6.900;2023-11-21T08:17:15;46.33;;;27.07;;
37451;SDS011;23314;51.114;6.900;2023-11-21T08:19:41;44.53;;;25.50;;
37451;SDS011;23314;51.114;6.900;2023-11-21T08:22:06;48.83;;;26.00;;
37451;SDS011;23314;51.114;6.900;2023-11-21T08:24:33;45.80;;;26.03;;
37451;SDS011;23314;51.114;6.900;2023-11-21T08:26:58;46.63;;;26.37;;
37451;SDS011;23314;51.114;6.900;2023-11-21T08:29:23;39.20;;;24.73;;
37451;SDS011;23314;51.114;6.900;2023-11-21T08:31:49;47.10;;;26.90;;
37451;SDS011;23314;51.114;6.900;2023-11-21T08:34:14;39.57;;;24.73;;
37451;SDS011;23314;51.114;6.900;2023-11-21T08:36:43;44.03;;;28.70;;
37451;SDS011;23314;51.114;6.900;2023-11-21T08:39:09;44.77;;;26.43;;
37451;SDS011;23314;51.114;6.900;2023-11-21T08:41:35;47.97;;;28.40;;
37451;SDS011;23314;51.114;6.900;2023-11-21T08:44:01;47.90;;;28.30;;
37451;SDS011;23314;51.114;6.900;2023-11-21T08:46:31;49.47;;;28.77;;
37451;SDS011;23314;51.114;6.900;2023-11-21T08:48:58;50.30;;;28.57;;
37451;SDS011;23314;51.114;6.900;2023-11-21T08:51:26;56.53;;;29.23;;
37451;SDS011;23314;51.114;6.900;2023-11-21T08:53:51;53.33;;;29.13;;
37451;SDS011;23314;51.114;6.900;2023-11-21T08:56:17;64.33;;;32.47;;
37451;SDS011;23314;51.114;6.900;2023-11-21T08:58:43;60.77;;;32.70;;
37451;SDS011;23314;51.114;6.900;2023-11-21T09:01:09;57.80;;;31.00;;
37451;SDS011;23314;51.114;6.900;2023-11-21T09:03:34;61.63;;;33.37;;
37451;SDS011;23314;51.114;6.900;2023-11-21T09:06:00;64.87;;;33.37;;
37451;SDS011;23314;51.114;6.900;2023-11-21T09:08:25;60.50;;;32.43;;
37451;SDS011;23314;51.114;6.900;2023-11-21T09:10:53;62.93;;;34.07;;
37451;SDS011;23314;51.114;6.900;2023-11-21T09:13:18;58.30;;;34.10;;
37451;SDS011;23314;51.114;6.900;2023-11-21T09:15:44;60.70;;;33.70;;
37451;SDS011;23314;51.114;6.900;2023-11-21T09:18:12;69.63;;;33.03;;
37451;SDS011;23314;51.114;6.900;2023-11-21T09:20:38;63.27;;;32.10;;
37451;SDS011;23314;51.114;6.900;2023-11-21T09:23:03;63.73;;;35.67;;
37451;SDS011;23314;51.114;6.900;2023-11-21T09:25:29;60.87;;;33.70;;
37451;SDS011;23314;51.114;6.900;2023-11-21T09:27:54;69.77;;;34.83;;
37451;SDS011;23314;51.114;6.900;2023-11-21T09:30:19;68.23;;;35.23;;
37451;SDS011;23314;51.114;6.900;2023-11-21T09:32:45;66.87;;;35.20;;
37451;SDS011;23314;51.114;6.900;2023-11-21T09:35:10;64.57;;;34.73;;
37451;SDS011;23314;51.114;6.900;2023-11-21T09:37:36;66.67;;;35.13;;
37451;SDS011;23314;51.114;6.900;2023-11-21T09:40:04;66.63;;;34.30;;
37451;SDS011;23314;51.114;6.900;2023-11-21T09:42:32;65.10;;;33.47;;
37451;SDS011;23314;51.114;6.900;2023-11-21T09:45:05;63.27;;;34.63;;
37451;SDS011;23314;51.114;6.900;2023-11-21T09:47:38;74.47;;;36.13;;
37451;SDS011;23314;51.114;6.900;2023-11-21T09:50:04;64.83;;;34.20;;
37451;SDS011;23314;51.114;6.900;2023-11-21T09:52:35;70.43;;;34.53;;
37451;SDS011;23314;51.114;6.900;2023-11-21T09:55:09;64.80;;;33.77;;
37451;SDS011;23314;51.114;6.900;2023-11-21T09:57:38;58.53;;;31.90;;
37451;SDS011;23314;51.114;6.900;2023-11-21T10:00:03;66.97;;;33.33;;
37451;SDS011;23314;51.114;6.900;2023-11-21T10:02:31;68.50;;;32.43;;
37451;SDS011;23314;51.114;6.900;2023-11-21T10:05:02;62.60;;;33.50;;
37451;SDS011;23314;51.114;6.900;2023-11-21T10:07:27;62.30;;;33.40;;
37451;SDS011;23314;51.114;6.900;2023-11-21T10:09:53;61.80;;;31.97;;
37451;SDS011;23314;51.114;6.900;2023-11-21T10:12:20;61.93;;;33.37;;
37451;SDS011;23314;51.114;6.900;2023-11-21T10:14:48;66.17;;;33.57;;
37451;SDS011;23314;51.114;6.900;2023-11-21T10:17:14;62.67;;;32.33;;
37451;SDS011;23314;51.114;6.900;2023-11-21T10:19:43;71.90;;;34.63;;
37451;SDS011;23314;51.114;6.900;2023-11-21T10:22:12;61.43;;;33.50;;
37451;SDS011;23314;51.114;6.900;2023-11-21T10:24:37;61.47;;;32.83;;
37451;SDS011;23314;51.114;6.900;2023-11-21T10:27:04;60.63;;;34.23;;
37451;SDS011;23314;51.114;6.900;2023-11-21T10:29:29;58.10;;;33.60;;
37451;SDS011;23314;51.114;6.900;2023-11-21T10:31:55;58.27;;;32.07;;
37451;SDS011;23314;51.114;6.900;2023-11-21T10:34:23;55.67;;;31.93;;
37451;SDS011;23314;51.114;6.900;2023-11-21T10:36:49;54.90;;;32.13;;
37451;SDS011;23314;51.114;6.900;2023-11-21T10:39:18;53.03;;;32.07;;
37451;SDS011;23314;51.114;6.900;2023-11-21T10:41:49;58.47;;;31.03;;
37451;SDS011;23314;51.114;6.900;2023-11-21T10:44:15;58.27;;;30.47;;
37451;SDS011;23314;51.114;6.900;2023-11-21T10:46:46;53.40;;;30.37;;
37451;SDS011;23314;51.114;6.900;2023-11-21T10:49:16;55.37;;;29.20;;
37451;SDS011;23314;51.114;6.900;2023-11-21T10:51:45;46.80;;;27.37;;
37451;SDS011;23314;51.114;6.900;2023-11-21T10:54:16;45.30;;;27.03;;
37451;SDS011;23314;51.114;6.900;2023-11-21T10:56:42;44.00;;;26.40;;
37451;SDS011;23314;51.114;6.900;2023-11-21T10:59:12;37.80;;;23.60;;
37451;SDS011;23314;51.114;6.900;2023-11-21T11:01:40;48.10;;;24.83;;
37451;SDS011;23314;51.114;6.900;2023-11-21T11:04:09;44.47;;;25.47;;
37451;SDS011;23314;51.114;6.900;2023-11-21T11:06:45;47.30;;;25.07;;
37451;SDS011;23314;51.114;6.900;2023-11-21T11:09:18;49.90;;;28.80;;
37451;SDS011;23314;51.114;6.900;2023-11-21T11:11:44;46.70;;;28.50;;
37451;SDS011;23314;51.114;6.900;2023-11-21T11:14:10;47.00;;;25.93;;
37451;SDS011;23314;51.114;6.900;2023-11-21T11:16:37;48.90;;;26.30;;
37451;SDS011;23314;51.114;6.900;2023-11-21T11:19:06;58.30;;;28.07;;
37451;SDS011;23314;51.114;6.900;2023-11-21T11:21:43;55.60;;;27.23;;
37451;SDS011;23314;51.114;6.900;2023-11-21T11:24:23;60.50;;;28.30;;
37451;SDS011;23314;51.114;6.900;2023-11-21T11:30:00;50.20;;;25.87;;
37451;SDS011;23314;51.114;6.900;2023-11-21T11:38:26;53.63;;;28.57;;
37451;SDS011;23314;51.114;6.900;2023-11-21T11:40:56;59.20;;;31.85;;
37451;SDS011;23314;51.114;6.900;2023-11-21T11:43:27;51.53;;;29.27;;
37451;SDS011;23314;51.114;6.900;2023-11-21T11:45:58;55.75;;;30.55;;
37451;SDS011;23314;51.114;6.900;2023-11-21T11:48:24;60.77;;;28.40;;
37451;SDS011;23314;51.114;6.900;2023-11-21T11:51:09;61.47;;;28.37;;
37451;SDS011;23314;51.114;6.900;2023-11-21T11:53:46;60.87;;;29.23;;
37451;SDS011;23314;51.114;6.900;2023-11-21T11:56:26;63.78;;;34.35;;
37451;SDS011;23314;51.114;6.900;2023-11-21T11:58:53;64.63;;;30.93;;
37451;SDS011;23314;51.114;6.900;2023-11-21T12:01:20;57.03;;;30.03;;
37451;SDS011;23314;51.114;6.900;2023-11-21T12:06:42;58.13;;;29.83;;
37451;SDS011;23314;51.114;6.900;2023-11-21T12:09:18;66.47;;;30.13;;
37451;SDS011;23314;51.114;6.900;2023-11-21T12:11:45;58.83;;;29.90;;
37451;SDS011;23314;51.114;6.900;2023-11-21T12:14:11;62.40;;;32.33;;
37451;SDS011;23314;51.114;6.900;2023-11-21T12:16:38;57.70;;;30.37;;
37451;SDS011;23314;51.114;6.900;2023-11-21T12:19:04;59.07;;;31.20;;
37451;SDS011;23314;51.114;6.900;2023-11-21T12:21:30;56.73;;;32.43;;
37451;SDS011;23314;51.114;6.900;2023-11-21T12:23:57;59.20;;;30.93;;
37451;SDS011;23314;51.114;6.900;2023-11-21T12:26:23;53.17;;;28.57;;
37451;SDS011;23314;51.114;6.900;2023-11-21T12:28:53;56.63;;;28.90;;
37451;SDS011;23314;51.114;6.900;2023-11-21T12:31:22;51.43;;;29.87;;
37451;SDS011;23314;51.114;6.900;2023-11-21T12:33:48;55.67;;;29.67;;
37451;SDS011;23314;51.114;6.900;2023-11-21T12:36:13;58.87;;;30.70;;
37451;SDS011;23314;51.114;6.900;2023-11-21T12:38:39;55.57;;;31.10;;
37451;SDS011;23314;51.114;6.900;2023-11-21T12:41:04;54.77;;;30.87;;
37451;SDS011;23314;51.114;6.900;2023-11-21T12:43:31;62.83;;;35.17;;
37451;SDS011;23314;51.114;6.900;2023-11-21T12:46:10;65.30;;;31.03;;
37451;SDS011;23314;51.114;6.900;2023-11-21T12:48:37;55.97;;;31.00;;
37451;SDS011;23314;51.114;6.900;2023-11-21T12:51:04;59.80;;;31.87;;
37451;SDS011;23314;51.114;6.900;2023-11-21T12:53:31;57.40;;;30.17;;
37451;SDS011;23314;51.114;6.900;2023-11-21T12:56:02;57.85;;;34.35;;
37451;SDS011;23314;51.114;6.900;2023-11-21T12:58:31;60.45;;;35.38;;
37451;SDS011;23314;51.114;6.900;2023-11-21T13:00:58;53.27;;;32.73;;
37451;SDS011;23314;51.114;6.900;2023-11-21T13:03:24;51.80;;;30.73;;
37451;SDS011;23314;51.114;6.900;2023-11-21T13:05:51;51.40;;;27.90;;
37451;SDS011;23314;51.114;6.900;2023-11-21T13:08:20;57.35;;;30.05;;
37451;SDS011;23314;51.114;6.900;2023-11-21T13:10:51;54.60;;;28.50;;
37451;SDS011;23314;51.114;6.900;2023-11-21T13:13:20;46.53;;;24.17;;
37451;SDS011;23314;51.114;6.900;2023-11-21T13:15:49;60.27;;;28.33;;
37451;SDS011;23314;51.114;6.900;2023-11-21T13:18:16;50.83;;;27.57;;
37451;SDS011;23314;51.114;6.900;2023-11-21T13:20:42;48.33;;;27.03;;
37451;SDS011;23314;51.114;6.900;2023-11-21T13:23:08;53.23;;;27.07;;
37451;SDS011;23314;51.114;6.900;2023-11-21T13:25:37;51.33;;;26.97;;
37451;SDS011;23314;51.114;6.900;2023-11-21T13:28:10;51.27;;;26.90;;
37451;SDS011;23314;51.114;6.900;2023-11-21T13:30:36;53.97;;;25.90;;
37451;SDS011;23314;51.114;6.900;2023-11-21T13:33:04;53.13;;;27.67;;
37451;SDS011;23314;51.114;6.900;2023-11-21T13:35:35;49.30;;;27.50;;
37451;SDS011;23314;51.114;6.900;2023-11-21T13:38:12;55.07;;;27.33;;
37451;SDS011;23314;51.114;6.900;2023-11-21T13:40:38;49.90;;;27.70;;
37451;SDS011;23314;51.114;6.900;2023-11-21T13:43:11;55.10;;;28.80;;
37451;SDS011;23314;51.114;6.900;2023-11-21T13:45:40;56.97;;;29.40;;
37451;SDS011;23314;51.114;6.900;2023-11-21T13:48:07;62.03;;;29.37;;
37451;SDS011;23314;51.114;6.900;2023-11-21T13:50:38;57.07;;;28.73;;
37451;SDS011;23314;51.114;6.900;2023-11-21T13:53:09;64.67;;;29.57;;
37451;SDS011;23314;51.114;6.900;2023-11-21T13:55:47;60.23;;;29.97;;
37451;SDS011;23314;51.114;6.900;2023-11-21T13:58:14;61.57;;;29.03;;
37451;SDS011;23314;51.114;6.900;2023-11-21T14:00:45;67.40;;;29.40;;
37451;SDS011;23314;51.114;6.900;2023-11-21T14:03:14;58.70;;;29.57;;
37451;SDS011;23314;51.114;6.900;2023-11-21T14:05:46;55.50;;;30.27;;
37451;SDS011;23314;51.114;6.900;2023-11-21T14:08:16;55.67;;;30.13;;
37451;SDS011;23314;51.114;6.900;2023-11-21T14:10:45;64.10;;;30.53;;
37451;SDS011;23314;51.114;6.900;2023-11-21T14:13:15;58.97;;;29.57;;
37451;SDS011;23314;51.114;6.900;2023-11-21T14:15:48;58.97;;;30.20;;
37451;SDS011;23314;51.114;6.900;2023-11-21T14:18:16;57.60;;;30.13;;
37451;SDS011;23314;51.114;6.900;2023-11-21T14:20:43;57.37;;;29.50;;
37451;SDS011;23314;51.114;6.900;2023-11-21T14:23:09;61.63;;;30.07;;
37451;SDS011;23314;51.114;6.900;2023-11-21T14:25:36;57.70;;;30.07;;
37451;SDS011;23314;51.114;6.900;2023-11-21T14:28:02;54.87;;;30.00;;
37451;SDS011;23314;51.114;6.900;2023-11-21T14:30:29;59.37;;;30.10;;